Terminal Aerodrome Forecast
Issued by NWS Tulsa, OK

Home | Current Version | Previous Version | Text Only | Print | Product List | Glossary On
Versions: 1 2 3 4 5 6 7 8 9 10 11 12 13 14 15 16 17
000
FTPQ31 PGUM 012330
TAFGUM
TAF

TAF
PTSA 012330Z 0200/0224 07011KT P6SM VCSH SCT020 SCT130
      TEMPO 0200/0204 -SHRA BKN020 BKN130=

USA.gov is the U.S. government's official web portal to all federal, state and local government web resources and services.